createdAt,value
2023-04-17T00:00:08.460Z,100633.59
2023-04-17T00:02:40.634Z,100638.08
2023-04-17T00:05:09.591Z,100634.83
2023-04-17T00:07:41.343Z,100635.02
2023-04-17T00:10:10.644Z,100636.95
2023-04-17T00:12:39.103Z,100638.24
2023-04-17T00:15:08.158Z,100637.45
2023-04-17T00:17:37.972Z,100641.01
2023-04-17T00:20:10.868Z,100638.99
2023-04-17T00:22:39.177Z,100640.31
2023-04-17T00:25:10.621Z,100637.58
2023-04-17T00:27:39.724Z,100635.71
2023-04-17T00:30:08.854Z,100638.55
2023-04-17T00:32:38.125Z,100638.42
2023-04-17T00:35:07.347Z,100641.95
2023-04-17T00:37:36.437Z,100643.64
2023-04-17T00:40:05.306Z,100640.09
2023-04-17T00:42:33.506Z,100635.64
2023-04-17T00:45:01.968Z,100636.02
2023-04-17T00:47:30.732Z,100628.90
2023-04-17T00:49:59.165Z,100634.55
2023-04-17T00:52:30.156Z,100633.31
2023-04-17T00:54:58.783Z,100631.11
2023-04-17T00:57:27.920Z,100627.55
2023-04-17T00:59:56.871Z,100622.97
2023-04-17T01:02:26.333Z,100623.11
2023-04-17T01:04:54.686Z,100618.81
2023-04-17T01:07:23.521Z,100618.91
2023-04-17T01:09:51.855Z,100621.67
2023-04-17T01:12:21.661Z,100622.52
2023-04-17T01:14:51.639Z,100620.08
2023-04-17T01:17:20.703Z,100619.33
2023-04-17T01:19:49.561Z,100624.63
2023-04-17T01:22:17.975Z,100619.64
2023-04-17T01:24:46.878Z,100619.11
2023-04-17T01:27:15.702Z,100623.55
2023-04-17T01:29:45.491Z,100619.73
2023-04-17T01:32:13.683Z,100621.23
2023-04-17T01:34:41.941Z,100616.63
2023-04-17T01:37:10.318Z,100621.01
2023-04-17T01:39:38.515Z,100623.63
2023-04-17T01:42:06.980Z,100620.23
2023-04-17T01:44:37.712Z,100620.48
2023-04-17T01:47:06.097Z,100621.50
2023-04-17T01:49:34.432Z,100623.16
2023-04-17T01:52:02.768Z,100619.31
2023-04-17T01:54:31.261Z,100622.04
2023-04-17T01:56:59.555Z,100618.02
2023-04-17T01:59:28.021Z,100619.46
2023-04-17T02:01:57.486Z,100621.64
2023-04-17T02:04:26.130Z,100620.00
2023-04-17T02:06:54.899Z,100623.90
2023-04-17T02:09:23.103Z,100620.30
2023-04-17T02:11:51.220Z,100619.46
2023-04-17T02:14:20.972Z,100618.29
2023-04-17T02:16:50.327Z,100624.05
2023-04-17T02:19:18.467Z,100620.95
2023-04-17T02:21:46.622Z,100623.35
2023-04-17T02:24:14.713Z,100625.05
2023-04-17T02:26:43.091Z,100621.59
2023-04-17T02:29:14.361Z,100616.32
2023-04-17T02:31:43.443Z,100621.05
2023-04-17T02:34:12.861Z,100621.86
2023-04-17T02:36:41.544Z,100618.23
2023-04-17T02:39:10.198Z,100617.71
2023-04-17T02:41:40.958Z,100619.09
2023-04-17T02:44:09.772Z,100620.72
2023-04-17T02:46:38.398Z,100618.30
2023-04-17T02:49:07.621Z,100618.74
2023-04-17T02:51:48.529Z,100623.02
2023-04-17T02:54:16.798Z,100623.14
2023-04-17T02:56:45.030Z,100620.39
2023-04-17T02:59:14.029Z,100620.73
2023-04-17T03:01:42.374Z,100622.27
2023-04-17T03:04:11.221Z,100620.02
2023-04-17T03:06:40.085Z,100616.16
2023-04-17T03:09:08.941Z,100616.21
2023-04-17T03:11:37.116Z,100619.58
2023-04-17T03:14:05.994Z,100613.80
2023-04-17T03:16:34.609Z,100612.34
2023-04-17T03:19:03.435Z,100609.91
2023-04-17T03:21:31.988Z,100613.12
2023-04-17T03:24:00.674Z,100615.94
2023-04-17T03:26:29.234Z,100610.20
2023-04-17T03:28:59.279Z,100602.94
2023-04-17T03:31:28.292Z,100611.23
2023-04-17T03:33:56.603Z,100604.84
2023-04-17T03:36:26.095Z,100607.10
2023-04-17T03:38:56.014Z,100606.27
2023-04-17T03:41:24.283Z,100608.08
2023-04-17T03:43:52.657Z,100610.90
2023-04-17T03:46:21.434Z,100604.92
2023-04-17T03:48:49.822Z,100604.34
2023-04-17T03:51:18.717Z,100600.13
2023-04-17T03:53:47.611Z,100599.06
2023-04-17T03:56:16.012Z,100595.96
2023-04-17T03:58:44.991Z,100598.20
2023-04-17T04:01:14.737Z,100601.14
2023-04-17T04:03:55.323Z,100604.48
2023-04-17T04:06:24.235Z,100608.58
2023-04-17T04:08:52.848Z,100616.34
2023-04-17T04:11:21.681Z,100609.38
2023-04-17T04:13:50.224Z,100614.41
2023-04-17T04:16:18.485Z,100612.64
2023-04-17T04:18:47.253Z,100614.91
2023-04-17T04:21:16.208Z,100611.92
2023-04-17T04:23:45.635Z,100614.23
2023-04-17T04:29:03.924Z,100607.98
2023-04-17T04:31:51.122Z,100608.92
2023-04-17T04:34:25.523Z,100605.77
2023-04-17T04:36:54.914Z,100601.23
2023-04-17T04:39:44.483Z,100598.98
2023-04-17T04:42:22.052Z,100597.25
2023-04-17T04:45:14.054Z,100595.98
2023-04-17T04:47:44.315Z,100589.58
2023-04-17T04:50:13.139Z,100593.90
2023-04-17T04:52:42.036Z,100598.25
2023-04-17T04:55:22.087Z,100597.58
2023-04-17T04:57:54.488Z,100595.67
2023-04-17T05:00:24.053Z,100596.84
2023-04-17T05:02:55.991Z,100597.55
2023-04-17T05:05:26.069Z,100591.26
2023-04-17T05:07:55.357Z,100594.67
2023-04-17T05:10:26.561Z,100589.90
2023-04-17T05:12:59.703Z,100589.14
2023-04-17T05:15:28.288Z,100593.66
2023-04-17T05:17:57.199Z,100595.16
2023-04-17T05:20:26.796Z,100593.95
2023-04-17T05:22:57.620Z,100599.42
2023-04-17T05:25:26.069Z,100604.59
2023-04-17T05:27:55.633Z,100609.31
2023-04-17T05:30:24.013Z,100603.89
2023-04-17T05:33:00.948Z,100604.66
2023-04-17T05:35:49.483Z,100607.88
2023-04-17T05:38:18.483Z,100616.68
2023-04-17T05:40:46.855Z,100615.69
2023-04-17T05:43:15.342Z,100608.00
2023-04-17T05:45:43.840Z,100614.41
2023-04-17T05:48:12.151Z,100614.55
2023-04-17T05:50:40.445Z,100619.52
2023-04-17T05:53:09.146Z,100632.64
2023-04-17T05:55:41.810Z,100618.73
2023-04-17T06:00:43.923Z,100622.52
2023-04-17T06:03:13.884Z,100614.61
2023-04-17T06:05:43.062Z,100614.55
2023-04-17T06:08:12.644Z,100629.36
2023-04-17T06:10:46.046Z,100622.55
2023-04-17T06:13:14.622Z,100619.61
2023-04-17T06:15:46.893Z,100616.23
2023-04-17T06:18:17.978Z,100625.13
2023-04-17T06:20:46.748Z,100622.31
2023-04-17T06:23:19.382Z,100618.70
2023-04-17T06:25:47.893Z,100625.23
2023-04-17T06:28:16.599Z,100628.85
2023-04-17T06:30:45.538Z,100631.58
2023-04-17T06:33:13.997Z,100634.08
2023-04-17T06:35:42.507Z,100631.30
2023-04-17T06:38:20.954Z,100611.54
2023-04-17T06:40:50.815Z,100608.92
2023-04-17T06:43:23.786Z,100609.55
2023-04-17T06:45:52.438Z,100619.89
2023-04-17T06:48:20.872Z,100601.00
2023-04-17T06:50:49.667Z,100597.11
2023-04-17T06:53:21.867Z,100586.61
2023-04-17T06:55:50.511Z,100582.34
2023-04-17T06:58:18.793Z,100591.14
2023-04-17T07:00:55.335Z,100588.55
2023-04-17T07:04:09.227Z,100581.70
2023-04-17T07:06:35.702Z,100573.45
2023-04-17T07:09:30.044Z,100574.16
2023-04-17T07:11:58.520Z,100583.41
2023-04-17T07:14:27.551Z,100589.17
2023-04-17T07:16:55.877Z,100580.70
2023-04-17T07:19:24.271Z,100567.73
2023-04-17T07:21:53.413Z,100563.98
2023-04-17T07:24:28.292Z,100562.66
2023-04-17T07:26:59.769Z,100561.85
2023-04-17T07:29:28.069Z,100556.89
2023-04-17T07:32:13.823Z,100566.70
2023-04-17T07:34:46.328Z,100572.05
2023-04-17T07:37:17.797Z,100564.02
2023-04-17T07:39:49.404Z,100553.12
2023-04-17T07:42:17.597Z,100561.47
2023-04-17T07:44:47.200Z,100553.36
2023-04-17T07:47:15.657Z,100539.67
2023-04-17T07:49:49.163Z,100541.96
2023-04-17T07:52:18.333Z,100530.70
2023-04-17T07:54:46.809Z,100531.05
2023-04-17T07:57:18.225Z,100537.54
2023-04-17T07:59:46.910Z,100541.73
2023-04-17T08:02:16.942Z,100532.95
2023-04-17T08:04:46.124Z,100522.64
2023-04-17T08:07:14.773Z,100517.66
2023-04-17T08:09:44.078Z,100507.56
2023-04-17T08:12:12.848Z,100510.77
2023-04-17T08:14:41.214Z,100513.09
2023-04-17T08:17:09.681Z,100510.19
2023-04-17T08:19:38.186Z,100497.29
2023-04-17T08:22:07.416Z,100501.15
2023-04-17T08:24:36.057Z,100506.10
2023-04-17T08:27:05.335Z,100496.11
2023-04-17T08:29:34.109Z,100496.02
2023-04-17T08:32:14.096Z,100501.48
2023-04-17T08:34:44.187Z,100493.52
2023-04-17T08:37:12.762Z,100490.26
2023-04-17T08:39:44.088Z,100493.69
2023-04-17T08:42:17.410Z,100481.98
2023-04-17T08:44:47.100Z,100478.48
2023-04-17T08:47:17.782Z,100479.03
2023-04-17T08:49:47.383Z,100473.27
2023-04-17T08:52:16.905Z,100460.31
2023-04-17T08:54:45.543Z,100467.91
2023-04-17T08:57:38.512Z,100470.05
2023-04-17T09:00:12.162Z,100446.80
2023-04-17T09:02:54.555Z,100454.70
2023-04-17T09:05:23.883Z,100440.86
2023-04-17T09:08:16.030Z,100432.58
2023-04-17T09:10:48.744Z,100444.40
2023-04-17T09:13:18.668Z,100438.69
2023-04-17T09:15:48.665Z,100439.15
2023-04-17T09:18:23.912Z,100432.70
2023-04-17T09:20:52.562Z,100434.65
2023-04-17T09:23:22.854Z,100428.44
2023-04-17T09:26:11.023Z,100430.67
2023-04-17T09:28:40.434Z,100428.30
2023-04-17T09:31:27.054Z,100414.90
2023-04-17T09:33:59.980Z,100417.98
2023-04-17T09:36:32.794Z,100403.68
2023-04-17T09:39:21.117Z,100413.85
2023-04-17T09:41:49.450Z,100393.20
2023-04-17T09:44:38.086Z,100400.85
2023-04-17T09:47:07.909Z,100402.71
2023-04-17T09:49:45.101Z,100399.01
2023-04-17T09:52:23.955Z,100414.68
2023-04-17T09:54:54.649Z,100393.30
2023-04-17T09:57:22.932Z,100389.20
2023-04-17T09:59:51.521Z,100377.05
2023-04-17T10:02:20.739Z,100402.95
2023-04-17T10:04:49.070Z,100388.09
2023-04-17T10:07:18.042Z,100391.23
2023-04-17T10:09:46.276Z,100392.67
2023-04-17T10:12:18.658Z,100386.33
2023-04-17T10:14:51.029Z,100390.79
2023-04-17T10:17:28.796Z,100385.31
2023-04-17T10:20:17.800Z,100392.79
2023-04-17T10:22:49.313Z,100391.13
2023-04-17T10:25:18.240Z,100395.49
2023-04-17T10:27:48.772Z,100392.58
2023-04-17T10:30:17.831Z,100382.77
2023-04-17T10:32:46.921Z,100389.61
2023-04-17T10:35:18.142Z,100391.71
2023-04-17T10:37:52.428Z,100408.43
2023-04-17T10:40:21.458Z,100385.52
2023-04-17T10:43:11.929Z,100379.63
2023-04-17T10:46:12.717Z,100380.89
2023-04-17T10:48:53.003Z,100365.30
2023-04-17T10:51:25.066Z,100367.92
2023-04-17T10:53:57.435Z,100388.41
2023-04-17T10:56:41.288Z,100372.06
2023-04-17T10:59:11.870Z,100375.23
2023-04-17T11:01:50.179Z,100359.95
2023-04-17T11:04:23.731Z,100358.58
2023-04-17T11:06:55.710Z,100360.63
2023-04-17T11:09:25.703Z,100356.01
2023-04-17T11:11:54.513Z,100361.19
2023-04-17T11:14:23.547Z,100386.48
2023-04-17T11:16:52.127Z,100364.77
2023-04-17T11:19:24.369Z,100374.36
2023-04-17T11:21:53.997Z,100353.88
2023-04-17T11:24:24.808Z,100352.10
2023-04-17T11:26:54.560Z,100342.94
2023-04-17T11:29:23.719Z,100344.18
2023-04-17T11:31:54.008Z,100344.88
2023-04-17T11:34:25.820Z,100347.09
2023-04-17T11:36:58.292Z,100337.64
2023-04-17T11:39:29.002Z,100353.67
2023-04-17T11:41:57.346Z,100329.49
2023-04-17T11:44:26.063Z,100335.91
2023-04-17T11:46:55.487Z,100324.27
2023-04-17T11:49:31.205Z,100321.77
2023-04-17T11:52:00.588Z,100330.59
2023-04-17T11:54:34.968Z,100341.52
2023-04-17T11:57:12.767Z,100336.59
2023-04-17T11:59:42.348Z,100324.63
2023-04-17T12:02:10.767Z,100318.47
2023-04-17T12:04:40.101Z,100311.25
2023-04-17T12:07:09.012Z,100314.17
2023-04-17T12:09:37.811Z,100325.61
2023-04-17T12:12:06.853Z,100325.86
2023-04-17T12:14:36.144Z,100336.93
2023-04-17T12:17:04.477Z,100322.10
2023-04-17T12:19:33.937Z,100308.16
2023-04-17T12:22:02.266Z,100312.18
2023-04-17T12:24:30.752Z,100306.59
2023-04-17T12:27:01.973Z,100293.41
2023-04-17T12:29:43.171Z,100298.19
2023-04-17T12:32:12.685Z,100289.34
2023-04-17T12:34:41.239Z,100302.13
2023-04-17T12:37:09.492Z,100290.27
2023-04-17T12:39:37.792Z,100284.35
2023-04-17T12:42:06.127Z,100289.06
2023-04-17T12:44:34.764Z,100270.92
2023-04-17T12:47:02.991Z,100275.34
2023-04-17T12:49:31.369Z,100274.20
2023-04-17T12:52:02.397Z,100275.45
2023-04-17T12:54:32.394Z,100274.34
2023-04-17T12:57:01.730Z,100280.73
2023-04-17T12:59:29.954Z,100290.39
2023-04-17T13:02:04.119Z,100262.83
2023-04-17T13:04:33.305Z,100267.94
2023-04-17T13:07:01.776Z,100257.17
2023-04-17T13:09:30.423Z,100287.34
2023-04-17T13:11:58.610Z,100271.92
2023-04-17T13:14:26.864Z,100266.77
2023-04-17T13:16:55.162Z,100271.67
2023-04-17T13:19:23.831Z,100280.46
2023-04-17T13:21:52.270Z,100279.14
2023-04-17T13:24:20.597Z,100268.04
2023-04-17T13:26:49.190Z,100263.56
2023-04-17T13:29:19.551Z,100267.88
2023-04-17T13:31:48.417Z,100284.72
2023-04-17T13:34:16.724Z,100289.23
2023-04-17T13:36:45.207Z,100285.23
2023-04-17T13:39:13.837Z,100273.71
2023-04-17T13:41:42.360Z,100277.56
2023-04-17T13:44:10.744Z,100273.92
2023-04-17T13:46:39.069Z,100279.79
2023-04-17T13:49:08.066Z,100274.95
2023-04-17T13:51:36.883Z,100288.02
2023-04-17T13:54:05.099Z,100290.90
2023-04-17T13:56:34.399Z,100297.50
2023-04-17T13:59:03.738Z,100287.45
2023-04-17T14:01:32.786Z,100280.93
2023-04-17T14:04:01.300Z,100300.20
2023-04-17T14:06:31.564Z,100301.64
2023-04-17T14:09:00.132Z,100291.91
2023-04-17T14:11:28.318Z,100282.17
2023-04-17T14:13:56.506Z,100287.35
2023-04-17T14:16:25.187Z,100274.77
2023-04-17T14:18:53.370Z,100278.46
2023-04-17T14:21:22.313Z,100287.43
2023-04-17T14:23:51.557Z,100279.76
2023-04-17T14:26:19.718Z,100275.03
2023-04-17T14:28:47.870Z,100280.33
2023-04-17T14:31:16.253Z,100279.23
2023-04-17T14:33:44.416Z,100267.59
2023-04-17T14:36:12.729Z,100275.80
2023-04-17T14:38:41.143Z,100266.80
2023-04-17T14:41:09.636Z,100275.02
2023-04-17T14:43:37.924Z,100275.85
2023-04-17T14:46:06.248Z,100285.18
2023-04-17T14:48:47.571Z,100276.77
2023-04-17T14:51:23.888Z,100274.74
2023-04-17T14:53:53.033Z,100281.27
2023-04-17T14:56:22.063Z,100276.17
2023-04-17T14:58:50.272Z,100268.89
2023-04-17T15:01:18.629Z,100276.59
2023-04-17T15:03:48.653Z,100281.70
2023-04-17T15:06:18.899Z,100271.30
2023-04-17T15:08:47.090Z,100279.59
2023-04-17T15:11:16.014Z,100273.97
2023-04-17T15:13:44.255Z,100281.02
2023-04-17T15:16:12.667Z,100275.26
2023-04-17T15:18:41.041Z,100262.54
2023-04-17T15:21:09.409Z,100258.44
2023-04-17T15:23:38.045Z,100263.02
2023-04-17T15:26:06.168Z,100268.23
2023-04-17T15:28:35.364Z,100281.19
2023-04-17T15:31:03.558Z,100279.80
2023-04-17T15:33:33.262Z,100274.81
2023-04-17T15:36:01.652Z,100280.99
2023-04-17T15:38:31.056Z,100269.69
2023-04-17T15:40:59.640Z,100271.33
2023-04-17T15:43:27.682Z,100276.47
2023-04-17T15:45:56.031Z,100283.23
2023-04-17T15:48:24.613Z,100281.73
2023-04-17T15:50:52.972Z,100277.11
2023-04-17T15:53:21.553Z,100284.45
2023-04-17T15:55:49.732Z,100280.52
2023-04-17T15:58:17.925Z,100283.89
2023-04-17T16:00:46.307Z,100289.19
2023-04-17T16:03:14.846Z,100292.68
2023-04-17T16:05:43.264Z,100292.11
2023-04-17T16:08:11.424Z,100295.39
2023-04-17T16:10:40.145Z,100293.09
2023-04-17T16:13:08.522Z,100294.51
2023-04-17T16:15:36.692Z,100297.87
2023-04-17T16:18:05.827Z,100298.47
2023-04-17T16:20:34.096Z,100298.59
2023-04-17T16:23:02.430Z,100300.30
2023-04-17T16:25:32.596Z,100309.27
2023-04-17T16:28:00.972Z,100306.07
2023-04-17T16:30:29.345Z,100308.33
2023-04-17T16:32:57.805Z,100312.23
2023-04-17T16:35:26.418Z,100315.55
2023-04-17T16:37:54.473Z,100312.09
2023-04-17T16:40:22.882Z,100315.75
2023-04-17T16:42:51.043Z,100311.64
2023-04-17T16:45:19.266Z,100315.00
2023-04-17T16:47:47.668Z,100320.92
2023-04-17T16:50:16.028Z,100322.65
2023-04-17T16:52:44.385Z,100327.02
2023-04-17T16:55:12.877Z,100325.05
2023-04-17T16:57:43.918Z,100328.55
2023-04-17T17:00:12.802Z,100333.48
2023-04-17T17:02:41.276Z,100334.80
2023-04-17T17:05:09.939Z,100340.73
2023-04-17T17:07:38.265Z,100343.02
2023-04-17T17:10:07.672Z,100348.71
2023-04-17T17:12:35.851Z,100353.61
2023-04-17T17:15:06.309Z,100353.52
2023-04-17T17:17:34.599Z,100358.88
2023-04-17T17:20:03.351Z,100358.61
2023-04-17T17:22:31.663Z,100358.39
2023-04-17T17:25:00.426Z,100363.17
2023-04-17T17:27:28.804Z,100361.90
2023-04-17T17:29:59.012Z,100365.86
2023-04-17T17:32:29.442Z,100359.19
2023-04-17T17:34:59.011Z,100366.79
2023-04-17T17:37:27.766Z,100370.20
2023-04-17T17:39:55.955Z,100368.54
2023-04-17T17:42:24.229Z,100366.05
2023-04-17T17:44:52.651Z,100370.67
2023-04-17T17:47:20.837Z,100375.52
2023-04-17T17:49:49.688Z,100386.55
2023-04-17T17:52:17.969Z,100380.02
2023-04-17T17:54:46.133Z,100382.23
2023-04-17T17:57:14.233Z,100381.45
2023-04-17T17:59:42.540Z,100383.18
2023-04-17T18:02:10.940Z,100386.59
2023-04-17T18:04:39.325Z,100382.69
2023-04-17T18:07:08.241Z,100383.94
2023-04-17T18:09:36.434Z,100392.52
2023-04-17T18:12:05.703Z,100385.93
2023-04-17T18:14:34.442Z,100387.50
2023-04-17T18:17:02.534Z,100383.71
2023-04-17T18:19:31.200Z,100381.95
2023-04-17T18:21:59.416Z,100390.55
2023-04-17T18:24:28.072Z,100382.13
2023-04-17T18:26:56.258Z,100390.20
2023-04-17T18:29:24.497Z,100393.54
2023-04-17T18:31:54.671Z,100385.83
2023-04-17T18:34:23.546Z,100386.71
2023-04-17T18:36:51.643Z,100378.25
2023-04-17T18:39:20.176Z,100382.15
2023-04-17T18:41:48.379Z,100378.80
2023-04-17T18:44:16.507Z,100374.60
2023-04-17T18:46:45.015Z,100370.92
2023-04-17T18:49:13.331Z,100369.23
2023-04-17T18:51:47.820Z,100375.65
2023-04-17T18:54:19.538Z,100363.59
2023-04-17T18:56:47.901Z,100364.00
2023-04-17T18:59:16.249Z,100363.83
2023-04-17T19:01:44.473Z,100362.79
2023-04-17T19:04:12.960Z,100367.05
2023-04-17T19:06:41.429Z,100363.61
2023-04-17T19:09:09.676Z,100367.66
2023-04-17T19:11:37.949Z,100363.33
2023-04-17T19:14:06.165Z,100363.20
2023-04-17T19:16:34.518Z,100358.59
2023-04-17T19:19:02.839Z,100360.67
2023-04-17T19:21:32.795Z,100356.34
2023-04-17T19:24:01.038Z,100357.02
2023-04-17T19:26:29.402Z,100362.36
2023-04-17T19:28:58.342Z,100360.20
2023-04-17T19:31:26.774Z,100356.50
2023-04-17T19:33:57.373Z,100361.52
2023-04-17T19:36:27.519Z,100357.14
2023-04-17T19:38:56.166Z,100355.10
2023-04-17T19:41:24.523Z,100354.77
2023-04-17T19:43:55.695Z,100352.80
2023-04-17T19:46:24.291Z,100357.20
2023-04-17T19:48:52.842Z,100355.42
2023-04-17T19:51:21.324Z,100356.39
2023-04-17T19:53:49.568Z,100353.98
2023-04-17T19:56:17.774Z,100358.27
2023-04-17T19:58:46.562Z,100358.42
2023-04-17T20:01:15.337Z,100348.84
2023-04-17T20:03:45.532Z,100349.84
2023-04-17T20:06:14.193Z,100348.84
2023-04-17T20:08:42.526Z,100343.88
2023-04-17T20:11:12.324Z,100342.20
2023-04-17T20:13:41.485Z,100349.80
2023-04-17T20:16:09.659Z,100353.48
2023-04-17T20:18:38.142Z,100349.33
2023-04-17T20:21:07.279Z,100345.76
2023-04-17T20:23:35.442Z,100344.52
2023-04-17T20:26:03.817Z,100337.73
2023-04-17T20:28:31.993Z,100338.16
2023-04-17T20:31:00.460Z,100331.35
2023-04-17T20:33:28.847Z,100334.26
2023-04-17T20:35:57.139Z,100332.19
2023-04-17T20:38:25.861Z,100332.27
2023-04-17T20:40:54.161Z,100332.67
2023-04-17T20:43:22.401Z,100332.63
2023-04-17T20:45:50.905Z,100328.78
2023-04-17T20:48:19.077Z,100329.39
2023-04-17T20:50:47.537Z,100331.84
2023-04-17T20:53:16.025Z,100330.54
2023-04-17T20:55:44.304Z,100330.55
2023-04-17T20:58:12.623Z,100329.29
2023-04-17T21:00:47.622Z,100325.63
2023-04-17T21:03:26.909Z,100320.98
2023-04-17T21:05:55.954Z,100322.77
2023-04-17T21:08:24.271Z,100321.45
2023-04-17T21:10:52.444Z,100316.48
2023-04-17T21:13:22.123Z,100316.05
2023-04-17T21:15:50.319Z,100311.70
2023-04-17T21:18:19.352Z,100310.61
2023-04-17T21:20:47.682Z,100309.00
2023-04-17T21:23:15.964Z,100307.71
2023-04-17T21:25:44.126Z,100308.57
2023-04-17T21:28:12.333Z,100308.14
2023-04-17T21:30:40.726Z,100304.33
2023-04-17T21:33:08.826Z,100306.04
2023-04-17T21:35:38.019Z,100301.83
2023-04-17T21:38:06.093Z,100303.32
2023-04-17T21:40:36.839Z,100302.77
2023-04-17T21:43:05.616Z,100304.46
2023-04-17T21:45:33.940Z,100301.98
2023-04-17T21:48:03.571Z,100301.48
2023-04-17T21:50:31.982Z,100295.85
2023-04-17T21:53:00.754Z,100295.98
2023-04-17T21:55:29.150Z,100292.27
2023-04-17T21:57:57.359Z,100289.39
2023-04-17T22:00:25.636Z,100289.23
2023-04-17T22:02:54.054Z,100293.74
2023-04-17T22:05:22.365Z,100294.35
2023-04-17T22:07:54.799Z,100291.45
2023-04-17T22:10:24.307Z,100289.78
2023-04-17T22:12:52.498Z,100291.80
2023-04-17T22:15:20.814Z,100288.91
2023-04-17T22:17:49.130Z,100286.90
2023-04-17T22:20:17.386Z,100289.55
2023-04-17T22:22:46.993Z,100279.08
2023-04-17T22:25:15.162Z,100284.79
2023-04-17T22:27:43.667Z,100275.44
2023-04-17T22:30:12.498Z,100275.53
2023-04-17T22:32:41.066Z,100277.05
2023-04-17T22:35:09.462Z,100276.09
2023-04-17T22:37:38.008Z,100275.80
2023-04-17T22:40:07.080Z,100270.27
2023-04-17T22:42:35.687Z,100264.58
2023-04-17T22:45:04.561Z,100263.46
2023-04-17T22:47:33.310Z,100262.92
2023-04-17T22:50:02.557Z,100263.59
2023-04-17T22:52:30.954Z,100269.96
2023-04-17T22:54:59.185Z,100265.75
2023-04-17T22:57:27.522Z,100266.30
2023-04-17T22:59:55.625Z,100265.77
2023-04-17T23:02:24.842Z,100262.29
2023-04-17T23:04:53.025Z,100266.91
2023-04-17T23:07:21.255Z,100263.02
2023-04-17T23:09:49.569Z,100261.17
2023-04-17T23:12:17.709Z,100259.20
2023-04-17T23:14:46.185Z,100259.26
2023-04-17T23:17:14.531Z,100261.61
2023-04-17T23:19:42.694Z,100259.41
2023-04-17T23:22:11.077Z,100258.01
2023-04-17T23:24:39.619Z,100258.27
2023-04-17T23:27:07.808Z,100260.98
2023-04-17T23:29:36.392Z,100259.92
2023-04-17T23:32:06.533Z,100256.28
2023-04-17T23:34:36.028Z,100253.40
2023-04-17T23:37:04.424Z,100256.92
2023-04-17T23:39:32.822Z,100253.69
2023-04-17T23:42:06.984Z,100258.79
2023-04-17T23:44:35.806Z,100261.92
2023-04-17T23:47:04.281Z,100255.65
2023-04-17T23:49:33.645Z,100255.10
2023-04-17T23:52:02.509Z,100257.02
2023-04-17T23:54:30.982Z,100255.21
2023-04-17T23:56:59.366Z,100254.32
2023-04-17T23:59:27.599Z,100248.74
